sensor_id;sensor_type;location;lat;lon;timestamp;P1;durP1;ratioP1;P2;durP2;ratioP2
5054;SDS011;13829;48.990;8.346;2022-07-23T00:02:26;11.63;;;10.43;;
5054;SDS011;13829;48.990;8.346;2022-07-23T00:04:52;12.77;;;11.15;;
5054;SDS011;13829;48.990;8.346;2022-07-23T00:07:19;11.77;;;10.57;;
5054;SDS011;13829;48.990;8.346;2022-07-23T00:09:46;11.23;;;10.10;;
5054;SDS011;13829;48.990;8.346;2022-07-23T00:12:13;12.85;;;10.20;;
5054;SDS011;13829;48.990;8.346;2022-07-23T00:14:40;11.88;;;10.55;;
5054;SDS011;13829;48.990;8.346;2022-07-23T00:17:07;12.05;;;10.80;;
5054;SDS011;13829;48.990;8.346;2022-07-23T00:19:36;12.18;;;10.98;;
5054;SDS011;13829;48.990;8.346;2022-07-23T00:22:02;11.88;;;10.77;;
5054;SDS011;13829;48.990;8.346;2022-07-23T00:24:29;10.75;;;9.80;;
5054;SDS011;13829;48.990;8.346;2022-07-23T00:26:56;10.88;;;9.77;;
5054;SDS011;13829;48.990;8.346;2022-07-23T00:29:23;11.55;;;10.45;;
5054;SDS011;13829;48.990;8.346;2022-07-23T00:31:50;11.07;;;9.98;;
5054;SDS011;13829;48.990;8.346;2022-07-23T00:34:17;11.30;;;10.20;;
5054;SDS011;13829;48.990;8.346;2022-07-23T00:36:46;10.68;;;9.52;;
5054;SDS011;13829;48.990;8.346;2022-07-23T00:39:13;10.75;;;9.68;;
5054;SDS011;13829;48.990;8.346;2022-07-23T00:41:39;10.23;;;9.32;;
5054;SDS011;13829;48.990;8.346;2022-07-23T00:44:19;9.93;;;8.95;;
5054;SDS011;13829;48.990;8.346;2022-07-23T00:46:50;9.90;;;8.85;;
5054;SDS011;13829;48.990;8.346;2022-07-23T00:49:19;10.73;;;8.30;;
5054;SDS011;13829;48.990;8.346;2022-07-23T00:51:48;8.48;;;7.78;;
5054;SDS011;13829;48.990;8.346;2022-07-23T00:54:17;9.05;;;8.23;;
5054;SDS011;13829;48.990;8.346;2022-07-23T00:56:47;8.45;;;7.65;;
5054;SDS011;13829;48.990;8.346;2022-07-23T00:59:14;8.77;;;7.95;;
5054;SDS011;13829;48.990;8.346;2022-07-23T01:01:42;9.00;;;8.10;;
5054;SDS011;13829;48.990;8.346;2022-07-23T01:04:10;11.25;;;8.57;;
5054;SDS011;13829;48.990;8.346;2022-07-23T01:06:37;9.85;;;8.20;;
5054;SDS011;13829;48.990;8.346;2022-07-23T01:09:06;9.77;;;8.77;;
5054;SDS011;13829;48.990;8.346;2022-07-23T01:11:34;7.90;;;7.22;;
5054;SDS011;13829;48.990;8.346;2022-07-23T01:14:10;8.90;;;8.10;;
5054;SDS011;13829;48.990;8.346;2022-07-23T01:16:38;8.57;;;7.82;;
5054;SDS011;13829;48.990;8.346;2022-07-23T01:19:05;8.77;;;7.90;;
5054;SDS011;13829;48.990;8.346;2022-07-23T01:21:34;8.52;;;7.82;;
5054;SDS011;13829;48.990;8.346;2022-07-23T01:24:04;8.80;;;8.00;;
5054;SDS011;13829;48.990;8.346;2022-07-23T01:26:33;10.10;;;9.10;;
5054;SDS011;13829;48.990;8.346;2022-07-23T01:29:01;9.05;;;8.10;;
5054;SDS011;13829;48.990;8.346;2022-07-23T01:31:28;9.00;;;7.70;;
5054;SDS011;13829;48.990;8.346;2022-07-23T01:33:55;9.05;;;8.15;;
5054;SDS011;13829;48.990;8.346;2022-07-23T01:36:23;8.93;;;8.23;;
5054;SDS011;13829;48.990;8.346;2022-07-23T01:38:50;9.55;;;8.65;;
5054;SDS011;13829;48.990;8.346;2022-07-23T01:41:18;9.63;;;8.73;;
5054;SDS011;13829;48.990;8.346;2022-07-23T01:43:46;9.88;;;8.95;;
5054;SDS011;13829;48.990;8.346;2022-07-23T01:46:13;9.70;;;8.70;;
5054;SDS011;13829;48.990;8.346;2022-07-23T01:48:40;11.68;;;10.00;;
5054;SDS011;13829;48.990;8.346;2022-07-23T01:51:07;9.40;;;8.50;;
5054;SDS011;13829;48.990;8.346;2022-07-23T01:53:34;9.15;;;8.23;;
5054;SDS011;13829;48.990;8.346;2022-07-23T01:56:02;9.23;;;8.32;;
5054;SDS011;13829;48.990;8.346;2022-07-23T01:58:31;9.13;;;8.23;;
5054;SDS011;13829;48.990;8.346;2022-07-23T02:00:58;9.57;;;8.68;;
5054;SDS011;13829;48.990;8.346;2022-07-23T02:03:25;8.60;;;7.80;;
5054;SDS011;13829;48.990;8.346;2022-07-23T02:05:53;12.85;;;9.18;;
5054;SDS011;13829;48.990;8.346;2022-07-23T02:08:20;16.00;;;9.23;;
5054;SDS011;13829;48.990;8.346;2022-07-23T02:10:47;19.48;;;10.07;;
5054;SDS011;13829;48.990;8.346;2022-07-23T02:13:16;9.98;;;8.82;;
5054;SDS011;13829;48.990;8.346;2022-07-23T02:15:45;12.90;;;8.73;;
5054;SDS011;13829;48.990;8.346;2022-07-23T02:18:13;10.15;;;8.60;;
5054;SDS011;13829;48.990;8.346;2022-07-23T02:20:40;12.35;;;8.98;;
5054;SDS011;13829;48.990;8.346;2022-07-23T02:23:09;12.23;;;9.05;;
5054;SDS011;13829;48.990;8.346;2022-07-23T02:25:36;9.52;;;8.63;;
5054;SDS011;13829;48.990;8.346;2022-07-23T02:28:04;10.57;;;8.85;;
5054;SDS011;13829;48.990;8.346;2022-07-23T02:30:31;8.88;;;7.97;;
5054;SDS011;13829;48.990;8.346;2022-07-23T02:32:59;9.15;;;8.18;;
5054;SDS011;13829;48.990;8.346;2022-07-23T02:35:26;10.32;;;8.15;;
5054;SDS011;13829;48.990;8.346;2022-07-23T02:37:53;9.88;;;8.23;;
5054;SDS011;13829;48.990;8.346;2022-07-23T02:40:20;12.25;;;8.40;;
5054;SDS011;13829;48.990;8.346;2022-07-23T02:42:47;8.20;;;7.40;;
5054;SDS011;13829;48.990;8.346;2022-07-23T02:45:14;8.52;;;7.72;;
5054;SDS011;13829;48.990;8.346;2022-07-23T02:47:41;8.27;;;7.40;;
5054;SDS011;13829;48.990;8.346;2022-07-23T02:50:09;8.40;;;7.70;;
5054;SDS011;13829;48.990;8.346;2022-07-23T02:52:37;8.02;;;7.22;;
5054;SDS011;13829;48.990;8.346;2022-07-23T02:55:04;11.00;;;7.75;;
5054;SDS011;13829;48.990;8.346;2022-07-23T02:57:32;8.85;;;7.95;;
5054;SDS011;13829;48.990;8.346;2022-07-23T02:59:59;8.02;;;7.28;;
5054;SDS011;13829;48.990;8.346;2022-07-23T03:02:26;7.93;;;6.97;;
5054;SDS011;13829;48.990;8.346;2022-07-23T03:04:53;8.48;;;7.40;;
5054;SDS011;13829;48.990;8.346;2022-07-23T03:07:21;9.73;;;7.78;;
5054;SDS011;13829;48.990;8.346;2022-07-23T03:09:48;7.65;;;6.93;;
5054;SDS011;13829;48.990;8.346;2022-07-23T03:12:15;8.13;;;7.25;;
5054;SDS011;13829;48.990;8.346;2022-07-23T03:14:42;7.72;;;7.03;;
5054;SDS011;13829;48.990;8.346;2022-07-23T03:17:09;7.47;;;6.78;;
5054;SDS011;13829;48.990;8.346;2022-07-23T03:19:36;8.98;;;8.10;;
5054;SDS011;13829;48.990;8.346;2022-07-23T03:22:04;8.40;;;7.65;;
5054;SDS011;13829;48.990;8.346;2022-07-23T03:24:33;7.60;;;6.82;;
5054;SDS011;13829;48.990;8.346;2022-07-23T03:27:17;7.70;;;6.95;;
5054;SDS011;13829;48.990;8.346;2022-07-23T03:29:44;8.32;;;6.88;;
5054;SDS011;13829;48.990;8.346;2022-07-23T03:32:11;7.18;;;5.72;;
5054;SDS011;13829;48.990;8.346;2022-07-23T03:34:38;8.00;;;7.20;;
5054;SDS011;13829;48.990;8.346;2022-07-23T03:37:05;7.80;;;6.88;;
5054;SDS011;13829;48.990;8.346;2022-07-23T03:39:34;7.35;;;6.50;;
5054;SDS011;13829;48.990;8.346;2022-07-23T03:42:01;7.20;;;6.60;;
5054;SDS011;13829;48.990;8.346;2022-07-23T03:44:28;7.20;;;6.50;;
5054;SDS011;13829;48.990;8.346;2022-07-23T03:46:55;7.07;;;6.47;;
5054;SDS011;13829;48.990;8.346;2022-07-23T03:49:22;7.75;;;6.88;;
5054;SDS011;13829;48.990;8.346;2022-07-23T03:51:49;7.05;;;6.45;;
5054;SDS011;13829;48.990;8.346;2022-07-23T03:54:16;7.75;;;6.82;;
5054;SDS011;13829;48.990;8.346;2022-07-23T03:56:45;8.07;;;6.18;;
5054;SDS011;13829;48.990;8.346;2022-07-23T03:59:12;8.32;;;6.38;;
5054;SDS011;13829;48.990;8.346;2022-07-23T04:01:39;7.90;;;7.05;;
5054;SDS011;13829;48.990;8.346;2022-07-23T04:04:06;7.15;;;6.45;;
5054;SDS011;13829;48.990;8.346;2022-07-23T04:06:34;8.05;;;6.85;;
5054;SDS011;13829;48.990;8.346;2022-07-23T04:09:01;7.47;;;6.78;;
5054;SDS011;13829;48.990;8.346;2022-07-23T04:11:29;7.32;;;6.63;;
5054;SDS011;13829;48.990;8.346;2022-07-23T04:13:57;7.22;;;6.53;;
5054;SDS011;13829;48.990;8.346;2022-07-23T04:16:25;7.47;;;6.78;;
5054;SDS011;13829;48.990;8.346;2022-07-23T04:18:52;6.85;;;6.25;;
5054;SDS011;13829;48.990;8.346;2022-07-23T04:21:18;7.18;;;6.53;;
5054;SDS011;13829;48.990;8.346;2022-07-23T04:23:45;7.07;;;6.20;;
5054;SDS011;13829;48.990;8.346;2022-07-23T04:26:12;7.05;;;6.38;;
5054;SDS011;13829;48.990;8.346;2022-07-23T04:28:39;10.27;;;6.60;;
5054;SDS011;13829;48.990;8.346;2022-07-23T04:31:08;7.15;;;6.47;;
5054;SDS011;13829;48.990;8.346;2022-07-23T04:33:35;7.05;;;6.40;;
5054;SDS011;13829;48.990;8.346;2022-07-23T04:36:02;6.88;;;6.25;;
5054;SDS011;13829;48.990;8.346;2022-07-23T04:38:29;6.32;;;5.72;;
5054;SDS011;13829;48.990;8.346;2022-07-23T04:40:57;6.30;;;5.70;;
5054;SDS011;13829;48.990;8.346;2022-07-23T04:43:24;6.63;;;6.07;;
5054;SDS011;13829;48.990;8.346;2022-07-23T04:45:51;6.20;;;5.70;;
5054;SDS011;13829;48.990;8.346;2022-07-23T04:48:20;9.45;;;5.78;;
5054;SDS011;13829;48.990;8.346;2022-07-23T04:50:47;6.68;;;6.07;;
5054;SDS011;13829;48.990;8.346;2022-07-23T04:53:14;6.85;;;6.15;;
5054;SDS011;13829;48.990;8.346;2022-07-23T04:55:42;7.50;;;6.07;;
5054;SDS011;13829;48.990;8.346;2022-07-23T04:58:09;7.35;;;5.88;;
5054;SDS011;13829;48.990;8.346;2022-07-23T05:00:36;7.05;;;6.35;;
5054;SDS011;13829;48.990;8.346;2022-07-23T05:03:03;7.32;;;6.25;;
5054;SDS011;13829;48.990;8.346;2022-07-23T05:05:31;8.13;;;6.03;;
5054;SDS011;13829;48.990;8.346;2022-07-23T05:07:58;6.70;;;6.10;;
5054;SDS011;13829;48.990;8.346;2022-07-23T05:10:25;7.25;;;6.65;;
5054;SDS011;13829;48.990;8.346;2022-07-23T05:12:52;6.65;;;6.05;;
5054;SDS011;13829;48.990;8.346;2022-07-23T05:15:19;6.40;;;5.88;;
5054;SDS011;13829;48.990;8.346;2022-07-23T05:17:46;6.63;;;6.03;;
5054;SDS011;13829;48.990;8.346;2022-07-23T05:20:13;8.18;;;7.30;;
5054;SDS011;13829;48.990;8.346;2022-07-23T05:22:42;8.13;;;6.25;;
5054;SDS011;13829;48.990;8.346;2022-07-23T05:25:09;6.68;;;6.00;;
5054;SDS011;13829;48.990;8.346;2022-07-23T05:27:36;6.82;;;6.22;;
5054;SDS011;13829;48.990;8.346;2022-07-23T05:30:03;6.43;;;5.82;;
5054;SDS011;13829;48.990;8.346;2022-07-23T05:32:31;10.88;;;6.22;;
5054;SDS011;13829;48.990;8.346;2022-07-23T05:34:58;7.80;;;6.40;;
5054;SDS011;13829;48.990;8.346;2022-07-23T05:37:25;8.43;;;6.07;;
5054;SDS011;13829;48.990;8.346;2022-07-23T05:39:54;7.10;;;6.40;;
5054;SDS011;13829;48.990;8.346;2022-07-23T05:42:21;6.70;;;6.00;;
5054;SDS011;13829;48.990;8.346;2022-07-23T05:44:48;7.60;;;6.80;;
5054;SDS011;13829;48.990;8.346;2022-07-23T05:47:15;7.10;;;6.15;;
5054;SDS011;13829;48.990;8.346;2022-07-23T05:49:42;9.23;;;6.32;;
5054;SDS011;13829;48.990;8.346;2022-07-23T05:52:09;6.75;;;6.07;;
5054;SDS011;13829;48.990;8.346;2022-07-23T05:54:36;10.02;;;6.55;;
5054;SDS011;13829;48.990;8.346;2022-07-23T05:57:05;8.30;;;7.10;;
5054;SDS011;13829;48.990;8.346;2022-07-23T05:59:32;10.07;;;7.45;;
5054;SDS011;13829;48.990;8.346;2022-07-23T06:01:59;7.15;;;6.40;;
5054;SDS011;13829;48.990;8.346;2022-07-23T06:04:26;7.72;;;6.93;;
5054;SDS011;13829;48.990;8.346;2022-07-23T06:06:53;7.57;;;6.97;;
5054;SDS011;13829;48.990;8.346;2022-07-23T06:09:20;7.18;;;6.47;;
5054;SDS011;13829;48.990;8.346;2022-07-23T06:11:47;6.63;;;6.03;;
5054;SDS011;13829;48.990;8.346;2022-07-23T06:14:15;7.18;;;6.47;;
5054;SDS011;13829;48.990;8.346;2022-07-23T06:16:42;7.20;;;6.47;;
5054;SDS011;13829;48.990;8.346;2022-07-23T06:19:09;7.63;;;6.78;;
5054;SDS011;13829;48.990;8.346;2022-07-23T06:21:36;8.60;;;6.70;;
5054;SDS011;13829;48.990;8.346;2022-07-23T06:24:03;10.45;;;7.25;;
5054;SDS011;13829;48.990;8.346;2022-07-23T06:26:30;8.07;;;7.32;;
5054;SDS011;13829;48.990;8.346;2022-07-23T06:28:57;8.23;;;6.90;;
5054;SDS011;13829;48.990;8.346;2022-07-23T06:31:25;7.13;;;6.45;;
5054;SDS011;13829;48.990;8.346;2022-07-23T06:33:52;8.27;;;7.47;;
5054;SDS011;13829;48.990;8.346;2022-07-23T06:36:19;7.53;;;6.80;;
5054;SDS011;13829;48.990;8.346;2022-07-23T06:38:46;7.70;;;6.90;;
5054;SDS011;13829;48.990;8.346;2022-07-23T06:41:13;8.32;;;7.53;;
5054;SDS011;13829;48.990;8.346;2022-07-23T06:43:40;8.82;;;7.32;;
5054;SDS011;13829;48.990;8.346;2022-07-23T06:46:07;8.55;;;7.03;;
5054;SDS011;13829;48.990;8.346;2022-07-23T06:48:35;9.15;;;7.70;;
5054;SDS011;13829;48.990;8.346;2022-07-23T06:51:03;7.93;;;7.13;;
5054;SDS011;13829;48.990;8.346;2022-07-23T06:53:30;9.13;;;7.75;;
5054;SDS011;13829;48.990;8.346;2022-07-23T06:55:57;10.35;;;7.35;;
5054;SDS011;13829;48.990;8.346;2022-07-23T06:58:24;8.98;;;7.45;;
5054;SDS011;13829;48.990;8.346;2022-07-23T07:00:51;7.30;;;6.50;;
5054;SDS011;13829;48.990;8.346;2022-07-23T07:03:18;10.65;;;7.00;;
5054;SDS011;13829;48.990;8.346;2022-07-23T07:05:47;8.20;;;7.25;;
5054;SDS011;13829;48.990;8.346;2022-07-23T07:08:14;9.30;;;7.45;;
5054;SDS011;13829;48.990;8.346;2022-07-23T07:10:41;8.25;;;7.35;;
5054;SDS011;13829;48.990;8.346;2022-07-23T07:13:08;8.60;;;7.60;;
5054;SDS011;13829;48.990;8.346;2022-07-23T07:15:36;8.90;;;6.75;;
5054;SDS011;13829;48.990;8.346;2022-07-23T07:18:03;7.72;;;6.95;;
5054;SDS011;13829;48.990;8.346;2022-07-23T07:20:30;8.63;;;7.78;;
5054;SDS011;13829;48.990;8.346;2022-07-23T07:22:58;8.48;;;7.40;;
5054;SDS011;13829;48.990;8.346;2022-07-23T07:25:25;8.80;;;7.90;;
5054;SDS011;13829;48.990;8.346;2022-07-23T07:27:52;9.27;;;8.27;;
5054;SDS011;13829;48.990;8.346;2022-07-23T07:30:19;9.25;;;7.55;;
5054;SDS011;13829;48.990;8.346;2022-07-23T07:32:46;9.15;;;8.25;;
5054;SDS011;13829;48.990;8.346;2022-07-23T07:35:13;10.63;;;7.93;;
5054;SDS011;13829;48.990;8.346;2022-07-23T07:37:40;8.63;;;7.57;;
5054;SDS011;13829;48.990;8.346;2022-07-23T07:40:09;8.45;;;7.60;;
5054;SDS011;13829;48.990;8.346;2022-07-23T07:42:43;8.25;;;6.15;;
5054;SDS011;13829;48.990;8.346;2022-07-23T07:45:11;8.55;;;7.55;;
5054;SDS011;13829;48.990;8.346;2022-07-23T07:47:38;8.60;;;6.85;;
5054;SDS011;13829;48.990;8.346;2022-07-23T07:50:05;7.60;;;6.93;;
5054;SDS011;13829;48.990;8.346;2022-07-23T07:52:33;7.63;;;6.97;;
5054;SDS011;13829;48.990;8.346;2022-07-23T07:55:01;7.22;;;6.63;;
5054;SDS011;13829;48.990;8.346;2022-07-23T07:57:30;7.88;;;7.18;;
5054;SDS011;13829;48.990;8.346;2022-07-23T07:59:57;7.97;;;7.18;;
5054;SDS011;13829;48.990;8.346;2022-07-23T08:02:24;9.02;;;7.85;;
5054;SDS011;13829;48.990;8.346;2022-07-23T08:04:51;11.00;;;6.68;;
5054;SDS011;13829;48.990;8.346;2022-07-23T08:07:18;9.25;;;7.47;;
5054;SDS011;13829;48.990;8.346;2022-07-23T08:09:45;9.20;;;6.90;;
5054;SDS011;13829;48.990;8.346;2022-07-23T08:12:12;7.82;;;6.18;;
5054;SDS011;13829;48.990;8.346;2022-07-23T08:14:41;6.72;;;6.13;;
5054;SDS011;13829;48.990;8.346;2022-07-23T08:17:09;7.05;;;6.45;;
5054;SDS011;13829;48.990;8.346;2022-07-23T08:19:36;6.43;;;5.93;;
5054;SDS011;13829;48.990;8.346;2022-07-23T08:22:03;7.15;;;6.55;;
5054;SDS011;13829;48.990;8.346;2022-07-23T08:24:30;7.78;;;7.00;;
5054;SDS011;13829;48.990;8.346;2022-07-23T08:26:57;7.80;;;6.38;;
5054;SDS011;13829;48.990;8.346;2022-07-23T08:29:24;7.57;;;6.97;;
5054;SDS011;13829;48.990;8.346;2022-07-23T08:31:52;8.95;;;6.75;;
5054;SDS011;13829;48.990;8.346;2022-07-23T08:34:19;8.10;;;6.85;;
5054;SDS011;13829;48.990;8.346;2022-07-23T08:36:46;7.65;;;6.93;;
5054;SDS011;13829;48.990;8.346;2022-07-23T08:39:13;6.75;;;6.15;;
5054;SDS011;13829;48.990;8.346;2022-07-23T08:41:40;7.55;;;6.85;;
5054;SDS011;13829;48.990;8.346;2022-07-23T08:44:09;8.43;;;6.53;;
5054;SDS011;13829;48.990;8.346;2022-07-23T08:46:36;7.75;;;6.60;;
5054;SDS011;13829;48.990;8.346;2022-07-23T08:49:06;8.40;;;7.07;;
5054;SDS011;13829;48.990;8.346;2022-07-23T08:51:34;7.07;;;6.43;;
5054;SDS011;13829;48.990;8.346;2022-07-23T08:54:01;7.55;;;6.85;;
5054;SDS011;13829;48.990;8.346;2022-07-23T08:56:29;9.15;;;7.72;;
5054;SDS011;13829;48.990;8.346;2022-07-23T08:58:56;7.60;;;6.85;;
5054;SDS011;13829;48.990;8.346;2022-07-23T09:01:23;7.70;;;6.90;;
5054;SDS011;13829;48.990;8.346;2022-07-23T09:03:50;8.55;;;7.68;;
5054;SDS011;13829;48.990;8.346;2022-07-23T09:06:19;8.20;;;7.40;;
5054;SDS011;13829;48.990;8.346;2022-07-23T09:08:46;8.05;;;7.25;;
5054;SDS011;13829;48.990;8.346;2022-07-23T09:11:15;7.63;;;7.03;;
5054;SDS011;13829;48.990;8.346;2022-07-23T09:13:45;8.40;;;7.50;;
5054;SDS011;13829;48.990;8.346;2022-07-23T09:16:15;10.80;;;8.13;;
5054;SDS011;13829;48.990;8.346;2022-07-23T09:18:44;12.07;;;7.45;;
5054;SDS011;13829;48.990;8.346;2022-07-23T09:21:19;10.93;;;7.90;;
5054;SDS011;13829;48.990;8.346;2022-07-23T09:23:53;7.95;;;7.07;;
5054;SDS011;13829;48.990;8.346;2022-07-23T09:26:25;9.05;;;7.47;;
5054;SDS011;13829;48.990;8.346;2022-07-23T09:29:00;8.45;;;7.10;;
5054;SDS011;13829;48.990;8.346;2022-07-23T09:31:41;8.07;;;7.30;;
5054;SDS011;13829;48.990;8.346;2022-07-23T09:34:16;8.02;;;6.93;;
5054;SDS011;13829;48.990;8.346;2022-07-23T09:36:48;7.50;;;6.80;;
5054;SDS011;13829;48.990;8.346;2022-07-23T09:39:22;8.20;;;7.07;;
5054;SDS011;13829;48.990;8.346;2022-07-23T09:41:53;9.00;;;6.97;;
5054;SDS011;13829;48.990;8.346;2022-07-23T09:44:21;8.00;;;7.30;;
5054;SDS011;13829;48.990;8.346;2022-07-23T09:46:49;7.63;;;6.85;;
5054;SDS011;13829;48.990;8.346;2022-07-23T09:49:25;7.78;;;7.07;;
5054;SDS011;13829;48.990;8.346;2022-07-23T09:51:54;9.95;;;7.65;;
5054;SDS011;13829;48.990;8.346;2022-07-23T09:54:27;8.27;;;7.47;;
5054;SDS011;13829;48.990;8.346;2022-07-23T09:57:00;7.57;;;6.88;;
5054;SDS011;13829;48.990;8.346;2022-07-23T09:59:32;8.70;;;7.90;;
5054;SDS011;13829;48.990;8.346;2022-07-23T10:02:02;8.20;;;7.40;;
5054;SDS011;13829;48.990;8.346;2022-07-23T10:04:31;8.85;;;7.50;;
5054;SDS011;13829;48.990;8.346;2022-07-23T10:07:01;8.30;;;6.93;;
5054;SDS011;13829;48.990;8.346;2022-07-23T10:09:31;8.38;;;7.50;;
5054;SDS011;13829;48.990;8.346;2022-07-23T10:12:01;8.02;;;7.15;;
5054;SDS011;13829;48.990;8.346;2022-07-23T10:14:52;8.77;;;7.97;;
5054;SDS011;13829;48.990;8.346;2022-07-23T10:17:19;8.02;;;7.32;;
5054;SDS011;13829;48.990;8.346;2022-07-23T10:19:46;7.95;;;7.35;;
5054;SDS011;13829;48.990;8.346;2022-07-23T10:22:17;7.70;;;7.00;;
5054;SDS011;13829;48.990;8.346;2022-07-23T10:24:51;8.50;;;7.57;;
5054;SDS011;13829;48.990;8.346;2022-07-23T10:27:38;8.18;;;7.38;;
5054;SDS011;13829;48.990;8.346;2022-07-23T10:30:26;8.05;;;7.43;;
5054;SDS011;13829;48.990;8.346;2022-07-23T10:33:19;8.32;;;7.53;;
5054;SDS011;13829;48.990;8.346;2022-07-23T10:35:58;7.97;;;7.18;;
5054;SDS011;13829;48.990;8.346;2022-07-23T10:38:37;9.07;;;8.27;;
5054;SDS011;13829;48.990;8.346;2022-07-23T10:41:17;8.48;;;7.78;;
5054;SDS011;13829;48.990;8.346;2022-07-23T10:44:08;9.10;;;8.32;;
5054;SDS011;13829;48.990;8.346;2022-07-23T10:49:33;9.18;;;7.35;;
5054;SDS011;13829;48.990;8.346;2022-07-23T10:58:07;8.15;;;7.45;;
5054;SDS011;13829;48.990;8.346;2022-07-23T11:00:34;8.20;;;7.38;;
5054;SDS011;13829;48.990;8.346;2022-07-23T11:03:03;8.30;;;7.70;;
5054;SDS011;13829;48.990;8.346;2022-07-23T11:05:47;8.32;;;7.53;;
5054;SDS011;13829;48.990;8.346;2022-07-23T11:08:16;8.05;;;7.35;;
5054;SDS011;13829;48.990;8.346;2022-07-23T11:10:50;8.93;;;8.05;;
5054;SDS011;13829;48.990;8.346;2022-07-23T11:13:40;8.43;;;7.50;;
5054;SDS011;13829;48.990;8.346;2022-07-23T11:16:16;8.30;;;7.50;;
5054;SDS011;13829;48.990;8.346;2022-07-23T11:21:43;8.30;;;7.50;;
5054;SDS011;13829;48.990;8.346;2022-07-23T11:24:13;7.72;;;7.05;;
5054;SDS011;13829;48.990;8.346;2022-07-23T11:26:52;8.95;;;8.13;;
5054;SDS011;13829;48.990;8.346;2022-07-23T11:29:37;7.90;;;7.13;;
5054;SDS011;13829;48.990;8.346;2022-07-23T11:32:18;8.13;;;7.43;;
5054;SDS011;13829;48.990;8.346;2022-07-23T11:34:59;9.82;;;7.65;;
5054;SDS011;13829;48.990;8.346;2022-07-23T11:37:33;8.50;;;7.80;;
5054;SDS011;13829;48.990;8.346;2022-07-23T11:40:04;9.02;;;8.23;;
5054;SDS011;13829;48.990;8.346;2022-07-23T11:42:37;8.88;;;8.07;;
5054;SDS011;13829;48.990;8.346;2022-07-23T11:45:06;8.57;;;7.70;;
5054;SDS011;13829;48.990;8.346;2022-07-23T11:47:34;8.60;;;7.78;;
5054;SDS011;13829;48.990;8.346;2022-07-23T11:50:03;8.70;;;7.78;;
5054;SDS011;13829;48.990;8.346;2022-07-23T11:52:32;8.82;;;7.97;;
5054;SDS011;13829;48.990;8.346;2022-07-23T11:55:00;9.27;;;7.63;;
5054;SDS011;13829;48.990;8.346;2022-07-23T11:57:31;8.35;;;7.55;;
5054;SDS011;13829;48.990;8.346;2022-07-23T12:00:03;8.98;;;8.07;;
5054;SDS011;13829;48.990;8.346;2022-07-23T12:02:35;8.82;;;8.00;;
5054;SDS011;13829;48.990;8.346;2022-07-23T12:05:03;8.45;;;7.63;;
5054;SDS011;13829;48.990;8.346;2022-07-23T12:07:32;7.93;;;7.20;;
5054;SDS011;13829;48.990;8.346;2022-07-23T12:10:03;8.77;;;7.90;;
5054;SDS011;13829;48.990;8.346;2022-07-23T12:12:37;8.70;;;7.97;;
5054;SDS011;13829;48.990;8.346;2022-07-23T12:15:08;7.95;;;7.30;;
5054;SDS011;13829;48.990;8.346;2022-07-23T12:17:38;8.52;;;7.72;;
5054;SDS011;13829;48.990;8.346;2022-07-23T12:20:08;8.05;;;7.35;;
5054;SDS011;13829;48.990;8.346;2022-07-23T12:22:40;8.60;;;7.78;;
5054;SDS011;13829;48.990;8.346;2022-07-23T12:25:11;8.82;;;8.05;;
5054;SDS011;13829;48.990;8.346;2022-07-23T12:27:40;8.80;;;7.57;;
5054;SDS011;13829;48.990;8.346;2022-07-23T12:30:25;8.35;;;7.65;;
5054;SDS011;13829;48.990;8.346;2022-07-23T12:32:55;9.05;;;8.15;;
5054;SDS011;13829;48.990;8.346;2022-07-23T12:35:29;8.13;;;7.32;;
5054;SDS011;13829;48.990;8.346;2022-07-23T12:38:03;7.75;;;6.97;;
5054;SDS011;13829;48.990;8.346;2022-07-23T12:40:34;7.88;;;7.18;;
5054;SDS011;13829;48.990;8.346;2022-07-23T12:43:08;7.88;;;7.18;;
5054;SDS011;13829;48.990;8.346;2022-07-23T12:45:43;10.20;;;9.10;;
5054;SDS011;13829;48.990;8.346;2022-07-23T12:48:20;8.27;;;7.47;;
5054;SDS011;13829;48.990;8.346;2022-07-23T12:50:51;7.82;;;7.13;;
5054;SDS011;13829;48.990;8.346;2022-07-23T12:53:24;8.27;;;7.40;;
5054;SDS011;13829;48.990;8.346;2022-07-23T12:56:01;8.45;;;7.60;;
5054;SDS011;13829;48.990;8.346;2022-07-23T12:58:43;8.20;;;7.40;;
5054;SDS011;13829;48.990;8.346;2022-07-23T13:01:23;8.50;;;7.70;;
5054;SDS011;13829;48.990;8.346;2022-07-23T13:04:00;9.30;;;7.65;;
5054;SDS011;13829;48.990;8.346;2022-07-23T13:06:30;7.93;;;7.15;;
5054;SDS011;13829;48.990;8.346;2022-07-23T13:08:59;8.90;;;8.05;;
5054;SDS011;13829;48.990;8.346;2022-07-23T13:11:28;8.20;;;7.47;;
5054;SDS011;13829;48.990;8.346;2022-07-23T13:13:55;9.50;;;7.20;;
5054;SDS011;13829;48.990;8.346;2022-07-23T13:16:24;9.15;;;7.13;;
5054;SDS011;13829;48.990;8.346;2022-07-23T13:18:51;8.68;;;7.90;;
5054;SDS011;13829;48.990;8.346;2022-07-23T13:21:18;7.57;;;6.85;;
5054;SDS011;13829;48.990;8.346;2022-07-23T13:23:45;9.30;;;7.25;;
5054;SDS011;13829;48.990;8.346;2022-07-23T13:26:12;8.45;;;7.00;;
5054;SDS011;13829;48.990;8.346;2022-07-23T13:28:39;8.07;;;7.03;;
5054;SDS011;13829;48.990;8.346;2022-07-23T13:31:06;8.52;;;7.72;;
5054;SDS011;13829;48.990;8.346;2022-07-23T13:33:35;7.90;;;7.25;;
5054;SDS011;13829;48.990;8.346;2022-07-23T13:36:03;8.07;;;7.38;;
5054;SDS011;13829;48.990;8.346;2022-07-23T13:38:31;7.53;;;6.97;;
5054;SDS011;13829;48.990;8.346;2022-07-23T13:40:58;8.30;;;7.50;;
5054;SDS011;13829;48.990;8.346;2022-07-23T13:43:28;8.65;;;7.65;;
5054;SDS011;13829;48.990;8.346;2022-07-23T13:45:56;8.25;;;7.45;;
5054;SDS011;13829;48.990;8.346;2022-07-23T13:48:23;8.00;;;7.20;;
5054;SDS011;13829;48.990;8.346;2022-07-23T13:50:51;8.02;;;7.22;;
5054;SDS011;13829;48.990;8.346;2022-07-23T13:53:20;8.00;;;7.15;;
5054;SDS011;13829;48.990;8.346;2022-07-23T13:55:50;8.35;;;7.65;;
5054;SDS011;13829;48.990;8.346;2022-07-23T13:58:19;8.05;;;7.25;;
5054;SDS011;13829;48.990;8.346;2022-07-23T14:00:48;8.98;;;8.07;;
5054;SDS011;13829;48.990;8.346;2022-07-23T14:03:19;8.45;;;7.65;;
5054;SDS011;13829;48.990;8.346;2022-07-23T14:05:48;7.55;;;6.90;;
5054;SDS011;13829;48.990;8.346;2022-07-23T14:08:17;7.95;;;7.30;;
5054;SDS011;13829;48.990;8.346;2022-07-23T14:10:44;9.52;;;8.05;;
5054;SDS011;13829;48.990;8.346;2022-07-23T14:13:11;8.38;;;7.30;;
5054;SDS011;13829;48.990;8.346;2022-07-23T14:15:38;7.30;;;6.60;;
5054;SDS011;13829;48.990;8.346;2022-07-23T14:18:05;7.60;;;6.90;;
5054;SDS011;13829;48.990;8.346;2022-07-23T14:20:33;7.38;;;6.68;;
5054;SDS011;13829;48.990;8.346;2022-07-23T14:23:00;9.43;;;7.07;;
5054;SDS011;13829;48.990;8.346;2022-07-23T14:25:29;8.73;;;6.97;;
5054;SDS011;13829;48.990;8.346;2022-07-23T14:27:56;7.20;;;6.55;;
5054;SDS011;13829;48.990;8.346;2022-07-23T14:30:23;8.07;;;7.22;;
5054;SDS011;13829;48.990;8.346;2022-07-23T14:32:50;9.65;;;7.78;;
5054;SDS011;13829;48.990;8.346;2022-07-23T14:35:17;7.43;;;6.72;;
5054;SDS011;13829;48.990;8.346;2022-07-23T14:37:44;8.40;;;7.57;;
5054;SDS011;13829;48.990;8.346;2022-07-23T14:40:11;7.78;;;7.10;;
5054;SDS011;13829;48.990;8.346;2022-07-23T14:42:40;7.57;;;6.88;;
5054;SDS011;13829;48.990;8.346;2022-07-23T14:45:07;10.05;;;7.68;;
5054;SDS011;13829;48.990;8.346;2022-07-23T14:47:35;7.82;;;7.05;;
5054;SDS011;13829;48.990;8.346;2022-07-23T14:50:02;7.57;;;6.85;;
5054;SDS011;13829;48.990;8.346;2022-07-23T14:52:30;7.05;;;6.45;;
5054;SDS011;13829;48.990;8.346;2022-07-23T14:54:57;8.32;;;7.57;;
5054;SDS011;13829;48.990;8.346;2022-07-23T14:57:23;8.13;;;7.32;;
5054;SDS011;13829;48.990;8.346;2022-07-23T14:59:52;8.52;;;7.75;;
5054;SDS011;13829;48.990;8.346;2022-07-23T15:02:19;8.68;;;7.88;;
5054;SDS011;13829;48.990;8.346;2022-07-23T15:04:46;9.00;;;8.18;;
5054;SDS011;13829;48.990;8.346;2022-07-23T15:07:13;10.65;;;8.07;;
5054;SDS011;13829;48.990;8.346;2022-07-23T15:09:40;9.43;;;8.02;;
5054;SDS011;13829;48.990;8.346;2022-07-23T15:12:07;8.57;;;7.88;;
5054;SDS011;13829;48.990;8.346;2022-07-23T15:14:34;8.35;;;7.65;;
5054;SDS011;13829;48.990;8.346;2022-07-23T15:17:02;8.35;;;7.65;;
5054;SDS011;13829;48.990;8.346;2022-07-23T15:19:29;8.57;;;7.80;;
5054;SDS011;13829;48.990;8.346;2022-07-23T15:21:56;8.52;;;7.75;;
5054;SDS011;13829;48.990;8.346;2022-07-23T15:24:24;8.77;;;7.97;;